Time;durP1;ratioP1;P1;durP2;ratioP2;P2;SDS_P1;SDS_P2;PMS_P1;PMS_P2;Temp;Humidity;BMP_temperature;BMP_pressure;BME280_temperature;BME280_humidity;BME280_pressure;Samples;Min_cycle;Max_cycle;Signal;HPM_P1;HPM_P2
2022/05/20 00:01:35;;;;;;;3.92;2.63;;;;;;;;;;5030480;28;20418;-64
2022/05/20 00:04:01;;;;;;;5.45;3.13;;;;;;;;;;5030200;28;20461;-65
2022/05/20 00:06:26;;;;;;;4.78;2.85;;;;;;;;;;5029642;28;20381;-62
2022/05/20 00:08:51;;;;;;;6.47;3.00;;;;;;;;;;5029251;28;20451;-65
2022/05/20 00:11:17;;;;;;;5.00;2.75;;;;;;;;;;5030400;28;20500;-65
2022/05/20 00:13:43;;;;;;;4.10;2.70;;;;;;;;;;5029588;28;20366;-64
2022/05/20 00:16:09;;;;;;;4.68;2.50;;;;;;;;;;5030082;28;20456;-64
2022/05/20 00:18:34;;;;;;;4.90;2.70;;;;;;;;;;5029800;28;20430;-64
2022/05/20 00:20:59;;;;;;;6.50;3.10;;;;;;;;;;5029803;28;20399;-64
2022/05/20 00:23:25;;;;;;;4.63;2.60;;;;;;;;;;5029594;28;20515;-65
2022/05/20 00:25:51;;;;;;;4.45;2.90;;;;;;;;;;5029772;28;20457;-64
2022/05/20 00:28:24;;;;;;;4.45;2.67;;;;;;;;;;5030053;28;20388;-64
2022/05/20 00:30:57;;;;;;;4.80;2.70;;;;;;;;;;5030817;28;20356;-65
2022/05/20 00:33:22;;;;;;;6.13;2.70;;;;;;;;;;5029458;28;20495;-64
2022/05/20 00:35:48;;;;;;;3.72;2.50;;;;;;;;;;5029392;28;20439;-65
2022/05/20 00:38:13;;;;;;;6.63;2.85;;;;;;;;;;5029571;28;20046;-65
2022/05/20 00:40:39;;;;;;;5.43;2.67;;;;;;;;;;5029287;28;20438;-65
2022/05/20 00:43:26;;;;;;;7.03;2.60;;;;;;;;;;5029243;28;20024;-64
2022/05/20 00:45:54;;;;;;;5.05;2.92;;;;;;;;;;5030845;28;20350;-64
2022/05/20 00:48:20;;;;;;;3.00;2.00;;;;;;;;;;5029402;28;20486;-64
2022/05/20 00:50:54;;;;;;;3.38;2.50;;;;;;;;;;5029121;28;20423;-64
2022/05/20 00:53:21;;;;;;;6.43;2.92;;;;;;;;;;5028856;28;20427;-64
2022/05/20 00:55:46;;;;;;;3.88;2.20;;;;;;;;;;5011323;28;20348;-65
2022/05/20 00:58:19;;;;;;;5.88;3.05;;;;;;;;;;5029159;28;20446;-66
2022/05/20 01:00:49;;;;;;;5.82;2.55;;;;;;;;;;5009804;28;20510;-65
2022/05/20 01:03:15;;;;;;;3.88;2.30;;;;;;;;;;5029581;28;20405;-63
2022/05/20 01:05:47;;;;;;;4.10;2.50;;;;;;;;;;5029881;28;20490;-64
2022/05/20 01:08:14;;;;;;;3.80;2.42;;;;;;;;;;5028631;28;20467;-64
2022/05/20 01:10:39;;;;;;;3.97;2.38;;;;;;;;;;5030023;28;20399;-64
2022/05/20 01:13:05;;;;;;;5.55;2.30;;;;;;;;;;5030647;28;20395;-64
2022/05/20 01:15:30;;;;;;;5.22;2.58;;;;;;;;;;5029011;28;20366;-65
2022/05/20 01:17:56;;;;;;;5.95;2.70;;;;;;;;;;5028816;28;20115;-64
2022/05/20 01:20:27;;;;;;;3.47;1.90;;;;;;;;;;5029131;28;20028;-64
2022/05/20 01:22:56;;;;;;;8.90;2.67;;;;;;;;;;5028668;28;20367;-65
2022/05/20 01:25:22;;;;;;;5.28;2.72;;;;;;;;;;5028414;28;20431;-64
2022/05/20 01:27:48;;;;;;;4.80;2.25;;;;;;;;;;5028846;28;20119;-64
2022/05/20 01:30:17;;;;;;;4.22;2.25;;;;;;;;;;5028745;28;20431;-64
2022/05/20 01:32:42;;;;;;;5.10;2.17;;;;;;;;;;5028073;28;20059;-64
2022/05/20 01:35:19;;;;;;;4.35;2.35;;;;;;;;;;5029714;28;20130;-64
2022/05/20 01:37:44;;;;;;;5.50;2.13;;;;;;;;;;5010278;28;20443;-64
2022/05/20 01:40:11;;;;;;;4.82;2.47;;;;;;;;;;5028649;28;20484;-64
2022/05/20 01:43:00;;;;;;;4.30;2.17;;;;;;;;;;5028931;28;20453;-65
2022/05/20 01:45:35;;;;;;;4.82;2.63;;;;;;;;;;5028834;28;20389;-64
2022/05/20 01:48:21;;;;;;;3.63;2.00;;;;;;;;;;5010153;28;20367;-64
2022/05/20 01:50:51;;;;;;;3.65;2.10;;;;;;;;;;5028076;28;20462;-64
2022/05/20 01:53:25;;;;;;;2.65;1.80;;;;;;;;;;5010431;28;20438;-64
2022/05/20 01:56:03;;;;;;;4.45;2.33;;;;;;;;;;5009935;28;20526;-65
2022/05/20 01:58:42;;;;;;;4.68;2.20;;;;;;;;;;5010490;28;20343;-63
2022/05/20 02:01:09;;;;;;;;;;;;;;;;;;5030358;28;20305;-64
2022/05/20 02:03:43;;;;;;;5.20;2.55;;;;;;;;;;5028285;28;20231;-65
2022/05/20 02:06:25;;;;;;;4.35;2.38;;;;;;;;;;5010182;28;20437;-65
2022/05/20 02:08:53;;;;;;;3.53;1.83;;;;;;;;;;5027412;28;20066;-64
2022/05/20 02:11:25;;;;;;;3.78;1.90;;;;;;;;;;5028315;28;20338;-65
2022/05/20 02:13:57;;;;;;;4.82;2.30;;;;;;;;;;5028552;28;20560;-64
2022/05/20 02:16:33;;;;;;;7.10;2.25;;;;;;;;;;5010180;28;20316;-64
2022/05/20 02:19:08;;;;;;;4.65;2.25;;;;;;;;;;5027949;28;20413;-64
2022/05/20 02:21:37;;;;;;;3.08;2.00;;;;;;;;;;5027662;28;20507;-64
2022/05/20 02:24:05;;;;;;;2.97;1.95;;;;;;;;;;5009927;28;20477;-64
2022/05/20 02:26:33;;;;;;;2.80;2.17;;;;;;;;;;5010125;28;20028;-64
2022/05/20 02:29:01;;;;;;;5.00;2.25;;;;;;;;;;5026407;28;20439;-64
2022/05/20 02:31:48;;;;;;;3.40;2.15;;;;;;;;;;5028432;28;20447;-65
2022/05/20 02:34:14;;;;;;;5.03;2.42;;;;;;;;;;5009781;28;20411;-66
2022/05/20 02:36:40;;;;;;;3.72;2.13;;;;;;;;;;5028207;28;20461;-65
2022/05/20 02:39:14;;;;;;;3.55;1.85;;;;;;;;;;5028284;28;20496;-65
2022/05/20 02:41:42;;;;;;;4.40;1.90;;;;;;;;;;5027870;28;20517;-65
2022/05/20 02:44:08;;;;;;;3.37;1.83;;;;;;;;;;5029348;28;20465;-65
2022/05/20 02:46:33;;;;;;;3.72;1.95;;;;;;;;;;5031478;28;20639;-64
2022/05/20 02:48:58;;;;;;;3.45;1.98;;;;;;;;;;5031645;28;20519;-64
2022/05/20 02:51:24;;;;;;;5.40;2.45;;;;;;;;;;5032004;28;20436;-64
2022/05/20 02:53:49;;;;;;;7.30;2.08;;;;;;;;;;5031113;28;20348;-65
2022/05/20 02:56:14;;;;;;;4.40;1.67;;;;;;;;;;5032485;28;20436;-65
2022/05/20 03:04:11;;;;;;;3.67;2.05;;;;;;;;;;5031903;28;20350;-64
2022/05/20 03:06:59;;;;;;;3.40;2.35;;;;;;;;;;5032596;28;20613;-65
2022/05/20 03:09:25;;;;;;;5.28;2.33;;;;;;;;;;5030591;28;20462;-65
2022/05/20 03:11:51;;;;;;;4.20;2.30;;;;;;;;;;5030605;28;20028;-65
2022/05/20 03:14:20;;;;;;;3.80;2.08;;;;;;;;;;5030873;28;20055;-64
2022/05/20 03:16:46;;;;;;;6.72;2.20;;;;;;;;;;5030739;28;20374;-65
2022/05/20 03:19:12;;;;;;;5.25;2.40;;;;;;;;;;5031557;28;20336;-64
2022/05/20 03:21:38;;;;;;;3.53;2.08;;;;;;;;;;5030510;28;20425;-64
2022/05/20 03:24:05;;;;;;;3.38;1.95;;;;;;;;;;5030694;28;20111;-64
2022/05/20 03:26:31;;;;;;;2.88;1.70;;;;;;;;;;5031025;28;20390;-65
2022/05/20 03:28:59;;;;;;;2.20;1.45;;;;;;;;;;5030408;28;20036;-64
2022/05/20 03:31:25;;;;;;;3.22;1.75;;;;;;;;;;5030908;28;20036;-65
2022/05/20 03:33:50;;;;;;;4.70;2.17;;;;;;;;;;5031693;28;20047;-65
2022/05/20 03:36:16;;;;;;;7.80;2.22;;;;;;;;;;5031035;28;20024;-64
2022/05/20 03:38:41;;;;;;;6.22;2.10;;;;;;;;;;5030537;28;20462;-66
2022/05/20 03:41:07;;;;;;;5.30;2.28;;;;;;;;;;5030439;28;20530;-65
2022/05/20 03:43:33;;;;;;;5.32;2.15;;;;;;;;;;5030228;28;20458;-65
2022/05/20 03:45:59;;;;;;;3.47;2.15;;;;;;;;;;5013160;28;20327;-64
2022/05/20 03:48:24;;;;;;;5.53;2.08;;;;;;;;;;5029776;28;20035;-64
2022/05/20 03:50:50;;;;;;;5.13;2.00;;;;;;;;;;5030404;28;20051;-64
2022/05/20 03:53:16;;;;;;;5.95;3.25;;;;;;;;;;5030687;28;20285;-64
2022/05/20 03:55:42;;;;;;;3.30;2.00;;;;;;;;;;5031361;28;20417;-65
2022/05/20 03:58:07;;;;;;;7.35;1.95;;;;;;;;;;5030461;28;20028;-64
2022/05/20 04:01:56;;;;;;;3.97;1.80;;;;;;;;;;5030286;28;20338;-65
2022/05/20 04:03:18;;;;;;;7.20;2.22;;;;;;;;;;5029612;28;20471;-64
2022/05/20 04:05:44;;;;;;;3.55;2.13;;;;;;;;;;5030158;28;20320;-65
2022/05/20 04:08:09;;;;;;;4.55;2.15;;;;;;;;;;5029715;28;20380;-65
2022/05/20 04:10:34;;;;;;;5.65;2.20;;;;;;;;;;5030365;28;20474;-64
2022/05/20 04:13:00;;;;;;;4.18;2.33;;;;;;;;;;5029641;28;20439;-65
2022/05/20 04:15:25;;;;;;;3.05;1.80;;;;;;;;;;5029509;28;20111;-65
2022/05/20 04:17:50;;;;;;;2.55;1.65;;;;;;;;;;5029419;28;20442;-64
2022/05/20 04:20:16;;;;;;;4.97;2.25;;;;;;;;;;5030955;28;20487;-65
2022/05/20 04:22:41;;;;;;;4.20;1.77;;;;;;;;;;5029741;28;20632;-64
2022/05/20 04:25:07;;;;;;;3.13;1.75;;;;;;;;;;5030563;28;20363;-65
2022/05/20 04:27:33;;;;;;;7.97;1.98;;;;;;;;;;5029624;28;20043;-64
2022/05/20 04:29:59;;;;;;;4.10;2.10;;;;;;;;;;5029496;28;20051;-65
2022/05/20 04:32:24;;;;;;;6.93;2.05;;;;;;;;;;5029077;28;20507;-65
2022/05/20 04:34:50;;;;;;;3.63;2.20;;;;;;;;;;5029400;28;20334;-64
2022/05/20 04:37:15;;;;;;;4.43;2.75;;;;;;;;;;5029390;28;20124;-65
2022/05/20 04:39:41;;;;;;;6.53;1.88;;;;;;;;;;5029400;28;20542;-64
2022/05/20 04:47:38;;;;;;;6.18;2.28;;;;;;;;;;5030213;28;20409;-63
2022/05/20 04:50:05;;;;;;;6.43;2.13;;;;;;;;;;5028881;28;20479;-64
2022/05/20 04:52:30;;;;;;;4.70;2.10;;;;;;;;;;5028685;28;20308;-64
2022/05/20 04:54:55;;;;;;;5.07;2.03;;;;;;;;;;5029667;28;20101;-68
2022/05/20 04:57:46;;;;;;;4.25;2.10;;;;;;;;;;5029034;28;20434;-65
2022/05/20 05:00:17;;;;;;;3.85;1.85;;;;;;;;;;5030939;28;20402;-64
2022/05/20 05:02:43;;;;;;;4.88;2.30;;;;;;;;;;5030102;28;20051;-65
2022/05/20 05:05:11;;;;;;;5.63;2.22;;;;;;;;;;5030138;28;20532;-64
2022/05/20 05:07:38;;;;;;;4.05;1.40;;;;;;;;;;5027478;28;20461;-64
2022/05/20 05:10:04;;;;;;;4.15;1.80;;;;;;;;;;5029995;28;20373;-65
2022/05/20 05:12:30;;;;;;;3.65;1.80;;;;;;;;;;5029692;28;20327;-66
2022/05/20 05:14:55;;;;;;;3.58;1.83;;;;;;;;;;5029388;28;20447;-65
2022/05/20 05:20:08;;;;;;;3.47;1.77;;;;;;;;;;5029225;28;20093;-64
2022/05/20 05:22:33;;;;;;;4.78;2.38;;;;;;;;;;5028107;28;20054;-64
2022/05/20 05:24:59;;;;;;;2.75;1.60;;;;;;;;;;5028305;28;20051;-64
2022/05/20 05:27:25;;;;;;;3.13;1.80;;;;;;;;;;5030033;28;20383;-64
2022/05/20 05:29:50;;;;;;;2.97;1.75;;;;;;;;;;5029472;28;20421;-65
2022/05/20 05:32:15;;;;;;;3.15;1.58;;;;;;;;;;5026707;28;20062;-64
2022/05/20 05:34:41;;;;;;;2.60;1.65;;;;;;;;;;5028496;28;20443;-64
2022/05/20 05:37:07;;;;;;;4.20;2.17;;;;;;;;;;5028349;28;20435;-64
2022/05/20 05:39:32;;;;;;;7.75;1.60;;;;;;;;;;5028552;28;20489;-63
2022/05/20 05:41:59;;;;;;;2.75;1.40;;;;;;;;;;5028482;28;20057;-65
2022/05/20 05:44:24;;;;;;;2.97;1.58;;;;;;;;;;5028723;28;20328;-64
2022/05/20 05:46:50;;;;;;;3.95;2.15;;;;;;;;;;5028623;28;20051;-65
2022/05/20 05:49:15;;;;;;;1.98;1.40;;;;;;;;;;5029498;28;20028;-65
2022/05/20 05:51:40;;;;;;;2.83;1.75;;;;;;;;;;5029119;28;20481;-65
2022/05/20 05:54:05;;;;;;;2.90;1.70;;;;;;;;;;5028376;28;20439;-64
2022/05/20 05:56:31;;;;;;;4.57;2.20;;;;;;;;;;5028437;28;20446;-65
2022/05/20 05:58:57;;;;;;;2.38;1.27;;;;;;;;;;5029248;28;20355;-65
2022/05/20 06:01:22;;;;;;;4.65;1.92;;;;;;;;;;5028204;28;20480;-64
2022/05/20 06:03:48;;;;;;;3.72;2.42;;;;;;;;;;5027755;28;20417;-64
2022/05/20 06:06:13;;;;;;;3.03;2.00;;;;;;;;;;5028531;28;20485;-64
2022/05/20 06:08:39;;;;;;;3.00;2.08;;;;;;;;;;5027492;28;20467;-65
2022/05/20 06:11:04;;;;;;;4.47;2.03;;;;;;;;;;5028321;28;20499;-63
2022/05/20 06:13:29;;;;;;;3.35;1.30;;;;;;;;;;5028338;28;20431;-64
2022/05/20 06:15:55;;;;;;;4.07;1.80;;;;;;;;;;5028303;28;20431;-63
2022/05/20 06:18:21;;;;;;;3.90;1.90;;;;;;;;;;5030431;28;20451;-64
2022/05/20 06:20:47;;;;;;;2.38;1.33;;;;;;;;;;5033135;28;20131;-64
2022/05/20 06:23:12;;;;;;;3.75;1.63;;;;;;;;;;5031996;28;20439;-64
2022/05/20 06:25:37;;;;;;;3.70;2.10;;;;;;;;;;5032299;28;20028;-65
2022/05/20 06:28:05;;;;;;;7.38;1.95;;;;;;;;;;5032130;28;20490;-65
2022/05/20 06:30:32;;;;;;;3.25;1.45;;;;;;;;;;5031552;28;20324;-64
2022/05/20 06:32:57;;;;;;;3.30;1.98;;;;;;;;;;5031805;28;20446;-64
2022/05/20 06:40:50;;;;;;;2.60;1.30;;;;;;;;;;5032375;28;20398;-63
2022/05/20 06:43:19;;;;;;;7.78;1.98;;;;;;;;;;5031546;28;20538;-64
2022/05/20 06:45:46;;;;;;;2.85;1.48;;;;;;;;;;5031409;28;20411;-64
2022/05/20 06:48:12;;;;;;;4.53;1.58;;;;;;;;;;5014211;28;20050;-64
2022/05/20 06:50:39;;;;;;;2.55;1.33;;;;;;;;;;5031513;28;20341;-63
2022/05/20 06:53:05;;;;;;;4.43;1.63;;;;;;;;;;5031657;28;20087;-65
2022/05/20 06:55:30;;;;;;;3.60;1.67;;;;;;;;;;5031424;28;20427;-63
2022/05/20 06:57:56;;;;;;;4.18;1.75;;;;;;;;;;5031496;28;20343;-64
2022/05/20 07:00:21;;;;;;;2.33;1.58;;;;;;;;;;5031222;28;20407;-64
2022/05/20 07:02:46;;;;;;;3.97;1.85;;;;;;;;;;5031019;28;20435;-64
2022/05/20 07:05:12;;;;;;;3.80;1.90;;;;;;;;;;5031770;28;20407;-64
2022/05/20 07:07:38;;;;;;;2.47;1.70;;;;;;;;;;5030772;28;20415;-64
2022/05/20 07:10:06;;;;;;;4.28;1.67;;;;;;;;;;5030801;28;20032;-65
2022/05/20 07:12:31;;;;;;;5.53;1.88;;;;;;;;;;5032035;28;20413;-63
2022/05/20 07:14:56;;;;;;;4.97;1.80;;;;;;;;;;5030705;28;20397;-65
2022/05/20 07:17:22;;;;;;;2.53;1.52;;;;;;;;;;5031159;28;20450;-64
2022/05/20 07:19:49;;;;;;;3.20;1.60;;;;;;;;;;5031926;28;20032;-64
2022/05/20 07:22:15;;;;;;;4.55;1.33;;;;;;;;;;5030879;28;20454;-65
2022/05/20 07:24:40;;;;;;;2.50;1.50;;;;;;;;;;5031684;28;20373;-63
2022/05/20 07:27:06;;;;;;;2.95;1.48;;;;;;;;;;5031194;28;20531;-65
2022/05/20 07:29:31;;;;;;;3.92;1.90;;;;;;;;;;5029903;28;20407;-64
2022/05/20 07:31:56;;;;;;;3.20;1.73;;;;;;;;;;5030715;28;20024;-64
2022/05/20 07:34:22;;;;;;;4.40;1.73;;;;;;;;;;5030424;28;20119;-63
2022/05/20 07:36:47;;;;;;;5.15;1.67;;;;;;;;;;5012478;28;20485;-64
2022/05/20 07:39:12;;;;;;;1.88;1.13;;;;;;;;;;5030557;28;20507;-64
2022/05/20 07:41:38;;;;;;;2.53;1.27;;;;;;;;;;5030522;28;20419;-64
2022/05/20 07:44:04;;;;;;;4.00;1.27;;;;;;;;;;5030596;28;20439;-64
2022/05/20 07:46:29;;;;;;;3.72;1.75;;;;;;;;;;5030292;28;20355;-64
2022/05/20 07:48:54;;;;;;;3.28;1.48;;;;;;;;;;5029973;28;20385;-64
2022/05/20 07:51:22;;;;;;;2.40;1.30;;;;;;;;;;5030273;28;20564;-63
2022/05/20 07:53:54;;;;;;;3.17;1.48;;;;;;;;;;5030204;28;20457;-64
2022/05/20 07:56:49;;;;;;;2.75;1.67;;;;;;;;;;5030085;28;20445;-65
2022/05/20 07:59:24;;;;;;;2.25;1.52;;;;;;;;;;5027925;28;20473;-64
2022/05/20 08:01:51;;;;;;;3.40;1.33;;;;;;;;;;5029826;28;20036;-65
2022/05/20 08:07:08;;;;;;;5.63;1.50;;;;;;;;;;5031562;28;20486;-64
2022/05/20 08:09:33;;;;;;;2.70;1.50;;;;;;;;;;4990414;28;20049;-64
2022/05/20 08:11:59;;;;;;;4.30;1.63;;;;;;;;;;4991340;28;20478;-63
2022/05/20 08:14:26;;;;;;;3.35;1.33;;;;;;;;;;4990636;28;20424;-64
2022/05/20 08:16:52;;;;;;;1.95;1.25;;;;;;;;;;4989840;28;20380;-65
2022/05/20 08:19:17;;;;;;;3.10;1.42;;;;;;;;;;4989651;28;20256;-63
2022/05/20 08:21:43;;;;;;;2.33;1.08;;;;;;;;;;4989841;28;20391;-63
2022/05/20 08:24:08;;;;;;;5.85;1.35;;;;;;;;;;4990172;28;20357;-64
2022/05/20 08:26:33;;;;;;;2.17;1.20;;;;;;;;;;4989825;28;20356;-64
2022/05/20 08:28:59;;;;;;;3.38;1.60;;;;;;;;;;4989378;28;20436;-65
2022/05/20 08:31:24;;;;;;;4.32;1.85;;;;;;;;;;4990642;28;20329;-64
2022/05/20 08:33:50;;;;;;;6.50;1.25;;;;;;;;;;4990016;28;20364;-64
2022/05/20 08:36:17;;;;;;;4.53;1.60;;;;;;;;;;4989774;28;20502;-64
2022/05/20 08:38:42;;;;;;;1.98;1.33;;;;;;;;;;4989553;28;20360;-65
2022/05/20 08:41:12;;;;;;;2.55;1.30;;;;;;;;;;4989609;28;20360;-65
2022/05/20 08:43:38;;;;;;;2.15;1.48;;;;;;;;;;5005502;28;20382;-64
2022/05/20 08:46:07;;;;;;;3.55;1.42;;;;;;;;;;4989287;28;20029;-64
2022/05/20 08:48:32;;;;;;;4.22;1.35;;;;;;;;;;4987875;28;20348;-65
2022/05/20 08:50:58;;;;;;;3.63;1.42;;;;;;;;;;4990385;28;20025;-64
2022/05/20 08:53:28;;;;;;;1.75;1.10;;;;;;;;;;4990054;28;20423;-64
2022/05/20 08:55:58;;;;;;;2.05;1.35;;;;;;;;;;4989749;28;20376;-64
2022/05/20 08:58:23;;;;;;;2.65;1.50;;;;;;;;;;5004803;28;20424;-64
2022/05/20 09:00:49;;;;;;;1.90;1.30;;;;;;;;;;4989685;28;20467;-64
2022/05/20 09:03:16;;;;;;;2.30;1.30;;;;;;;;;;4989310;28;20375;-64
2022/05/20 09:05:43;;;;;;;2.65;1.40;;;;;;;;;;4989775;28;20115;-64
2022/05/20 09:08:14;;;;;;;2.95;1.40;;;;;;;;;;5001686;28;20455;-64
2022/05/20 09:10:47;;;;;;;8.27;1.50;;;;;;;;;;5029005;28;20431;-64
2022/05/20 09:13:21;;;;;;;2.08;1.20;;;;;;;;;;5029629;28;20465;-64
2022/05/20 09:15:57;;;;;;;2.28;1.45;;;;;;;;;;5030156;28;20384;-63
2022/05/20 09:18:36;;;;;;;1.88;1.23;;;;;;;;;;5028746;28;20553;-65
2022/05/20 09:21:01;;;;;;;1.77;1.00;;;;;;;;;;5028793;28;20352;-65
2022/05/20 09:23:27;;;;;;;2.75;1.02;;;;;;;;;;5029479;28;20344;-65
2022/05/20 09:26:05;;;;;;;2.63;1.15;;;;;;;;;;5028888;28;20024;-65
2022/05/20 09:28:51;;;;;;;3.03;1.30;;;;;;;;;;5029577;28;20411;-64
2022/05/20 09:31:25;;;;;;;4.25;1.40;;;;;;;;;;5028781;28;20293;-64
2022/05/20 09:34:08;;;;;;;2.00;1.08;;;;;;;;;;5010833;28;20323;-64
2022/05/20 09:36:42;;;;;;;2.15;1.30;;;;;;;;;;5028901;28;20506;-63
2022/05/20 09:39:16;;;;;;;5.20;1.40;;;;;;;;;;5029137;28;20343;-64
2022/05/20 09:41:50;;;;;;;1.67;1.35;;;;;;;;;;5029128;28;20346;-65
2022/05/20 09:44:19;;;;;;;2.13;1.20;;;;;;;;;;5029452;28;20412;-65
2022/05/20 09:46:51;;;;;;;1.67;1.08;;;;;;;;;;5028949;28;20349;-64
2022/05/20 09:49:33;;;;;;;2.67;1.00;;;;;;;;;;5010840;28;20443;-65
2022/05/20 09:52:00;;;;;;;1.90;1.00;;;;;;;;;;5010471;28;20394;-64
2022/05/20 09:54:34;;;;;;;3.17;1.33;;;;;;;;;;5014470;28;20427;-65
2022/05/20 09:57:06;;;;;;;1.65;1.27;;;;;;;;;;5032337;28;20439;-64
2022/05/20 09:59:33;;;;;;;2.88;1.10;;;;;;;;;;5034102;28;20427;-64
2022/05/20 10:02:13;;;;;;;1.75;1.10;;;;;;;;;;5014664;28;20297;-65
2022/05/20 10:05:19;;;;;;;2.05;1.08;;;;;;;;;;5033139;28;20350;-64
2022/05/20 10:07:58;;;;;;;2.20;1.15;;;;;;;;;;5014146;28;20397;-64
2022/05/20 10:10:29;;;;;;;1.83;1.25;;;;;;;;;;5014532;28;20450;-64
2022/05/20 10:12:56;;;;;;;2.55;1.20;;;;;;;;;;5032559;28;20392;-64
2022/05/20 10:15:28;;;;;;;2.28;1.15;;;;;;;;;;5032437;28;20028;-64
2022/05/20 10:18:07;;;;;;;2.97;1.40;;;;;;;;;;5014138;28;20408;-64
2022/05/20 10:20:51;;;;;;;1.88;1.08;;;;;;;;;;5034081;28;20381;-63
2022/05/20 10:23:27;;;;;;;1.65;1.10;;;;;;;;;;5014032;28;20358;-62
2022/05/20 10:26:09;;;;;;;2.33;1.42;;;;;;;;;;5033142;28;20430;-64
2022/05/20 10:32:35;;;;;;;3.70;1.30;;;;;;;;;;5032341;28;20481;-63
2022/05/20 10:35:04;;;;;;;1.23;0.90;;;;;;;;;;5014837;28;20106;-64
2022/05/20 10:37:54;;;;;;;;;;;;;;;;;;5032409;28;20396;-64
2022/05/20 10:40:54;;;;;;;4.35;1.05;;;;;;;;;;5013426;28;20346;-64
2022/05/20 10:49:37;;;;;;;3.38;1.70;;;;;;;;;;5007508;28;20469;-65
2022/05/20 10:52:16;;;;;;;2.47;1.20;;;;;;;;;;5032570;28;20035;-65
2022/05/20 10:54:54;;;;;;;1.25;0.98;;;;;;;;;;5031971;28;20608;-64
2022/05/20 10:57:52;;;;;;;2.13;1.40;;;;;;;;;;5031879;28;20024;-65
2022/05/20 11:00:28;;;;;;;2.83;1.33;;;;;;;;;;5031410;28;20351;-65
2022/05/20 11:03:16;;;;;;;2.47;1.45;;;;;;;;;;5013520;28;20371;-64
2022/05/20 11:06:18;;;;;;;2.50;1.27;;;;;;;;;;5030229;28;20414;-64
2022/05/20 11:08:52;;;;;;;3.47;1.42;;;;;;;;;;5031029;28;20688;-65
2022/05/20 11:11:46;;;;;;;3.17;1.50;;;;;;;;;;5014229;28;20412;-64
2022/05/20 11:14:22;;;;;;;3.00;1.30;;;;;;;;;;5012830;28;20024;-64
2022/05/20 11:16:56;;;;;;;2.08;1.25;;;;;;;;;;5031495;28;20509;-64
2022/05/20 11:19:30;;;;;;;1.85;1.10;;;;;;;;;;5030882;28;20549;-64
2022/05/20 11:22:04;;;;;;;3.92;1.05;;;;;;;;;;5031808;28;20359;-64
2022/05/20 11:24:51;;;;;;;3.22;1.08;;;;;;;;;;5031099;28;20510;-64
2022/05/20 11:27:16;;;;;;;1.70;1.27;;;;;;;;;;5030933;28;20344;-64
2022/05/20 11:29:57;;;;;;;7.50;1.10;;;;;;;;;;5031748;28;20396;-65
2022/05/20 11:32:47;;;;;;;2.38;1.00;;;;;;;;;;5012973;28;20680;-63
2022/05/20 11:35:36;;;;;;;2.70;1.02;;;;;;;;;;5013431;28;20505;-63
2022/05/20 11:38:12;;;;;;;1.50;1.00;;;;;;;;;;5030399;28;20032;-62
2022/05/20 11:40:46;;;;;;;5.03;1.30;;;;;;;;;;5031117;28;20462;-62
2022/05/20 11:43:18;;;;;;;1.80;1.10;;;;;;;;;;5014298;28;20340;-62
2022/05/20 11:45:46;;;;;;;2.08;1.10;;;;;;;;;;5030730;28;20032;-61
2022/05/20 11:48:30;;;;;;;1.88;1.30;;;;;;;;;;5030628;28;20024;-61
2022/05/20 11:51:32;;;;;;;1.90;1.10;;;;;;;;;;5030573;28;20522;-62
2022/05/20 11:54:18;;;;;;;2.50;1.00;;;;;;;;;;5030524;28;20339;-64
2022/05/20 11:56:44;;;;;;;2.80;1.15;;;;;;;;;;5012246;28;20335;-65
2022/05/20 11:59:19;;;;;;;1.90;1.02;;;;;;;;;;5012076;28;20131;-64
2022/05/20 12:01:47;;;;;;;2.80;0.95;;;;;;;;;;5030456;28;20351;-64
2022/05/20 12:04:13;;;;;;;2.33;1.40;;;;;;;;;;5029659;28;20445;-64
2022/05/20 12:06:47;;;;;;;2.22;1.20;;;;;;;;;;5012170;28;20432;-64
2022/05/20 12:09:32;;;;;;;1.10;1.00;;;;;;;;;;5029811;28;20075;-64
2022/05/20 12:12:27;;;;;;;2.15;0.90;;;;;;;;;;5030886;28;20435;-65
2022/05/20 12:15:27;;;;;;;6.70;1.20;;;;;;;;;;4509100;28;10000044;-64
2022/05/20 12:17:53;;;;;;;2.72;1.17;;;;;;;;;;5029959;28;20522;-64
2022/05/20 12:25:50;;;;;;;3.78;1.40;;;;;;;;;;5029769;28;20442;-62
2022/05/20 12:28:22;;;;;;;2.88;1.30;;;;;;;;;;5012091;28;20032;-62
2022/05/20 12:31:02;;;;;;;1.33;0.82;;;;;;;;;;5029698;28;20036;-64
2022/05/20 12:33:56;;;;;;;5.15;1.83;;;;;;;;;;5029878;28;20393;-62
2022/05/20 12:36:28;;;;;;;3.05;0.98;;;;;;;;;;5030787;28;20335;-62
2022/05/20 12:39:08;;;;;;;3.08;1.13;;;;;;;;;;5030032;28;20488;-64
2022/05/20 12:41:48;;;;;;;1.67;0.88;;;;;;;;;;5029744;28;20336;-64
2022/05/20 12:44:16;;;;;;;1.38;1.13;;;;;;;;;;5029108;28;20075;-64
2022/05/20 12:47:09;;;;;;;1.43;0.90;;;;;;;;;;5029871;28;20461;-64
2022/05/20 12:49:44;;;;;;;1.80;1.02;;;;;;;;;;5029495;28;20454;-65
2022/05/20 12:52:18;;;;;;;2.10;1.10;;;;;;;;;;5029524;28;20571;-64
2022/05/20 12:54:55;;;;;;;7.68;1.60;;;;;;;;;;5029749;28;20335;-64
2022/05/20 12:57:27;;;;;;;3.38;1.30;;;;;;;;;;5029261;28;20431;-64
2022/05/20 13:00:03;;;;;;;2.13;1.20;;;;;;;;;;5029554;28;20374;-64
2022/05/20 13:02:52;;;;;;;2.80;1.35;;;;;;;;;;5029968;28;20335;-65
2022/05/20 13:05:28;;;;;;;1.83;1.10;;;;;;;;;;5029088;28;20122;-66
2022/05/20 13:07:55;;;;;;;1.85;1.10;;;;;;;;;;5004474;28;20154;-65
2022/05/20 13:10:21;;;;;;;1.55;1.00;;;;;;;;;;5004282;28;20429;-65
2022/05/20 13:12:52;;;;;;;2.28;1.30;;;;;;;;;;5004214;28;20025;-64
2022/05/20 13:15:22;;;;;;;1.45;1.10;;;;;;;;;;4989159;28;20340;-63
2022/05/20 13:17:58;;;;;;;2.72;1.38;;;;;;;;;;4989639;28;20102;-64
2022/05/20 13:20:24;;;;;;;2.67;1.48;;;;;;;;;;4989300;28;20364;-64
2022/05/20 13:22:50;;;;;;;3.85;1.55;;;;;;;;;;4989425;28;20313;-64
2022/05/20 13:25:17;;;;;;;2.03;1.20;;;;;;;;;;5004145;28;20364;-64
2022/05/20 13:27:47;;;;;;;5.95;1.92;;;;;;;;;;4988493;28;20451;-64
2022/05/20 13:30:21;;;;;;;4.32;1.67;;;;;;;;;;4990011;28;20305;-64
2022/05/20 13:32:47;;;;;;;1.73;0.95;;;;;;;;;;4990160;28;20417;-64
2022/05/20 13:35:13;;;;;;;1.90;1.08;;;;;;;;;;4989545;28;20367;-64
2022/05/20 13:37:43;;;;;;;1.77;1.10;;;;;;;;;;4990474;28;20364;-64
2022/05/20 13:40:18;;;;;;;3.70;1.10;;;;;;;;;;4987439;28;20348;-64
2022/05/20 13:42:55;;;;;;;2.17;1.30;;;;;;;;;;4989239;28;20511;-64
2022/05/20 13:49:12;;;;;;;2.15;1.27;;;;;;;;;;4989056;28;20343;-65
2022/05/20 13:51:00;;;;;;;1.77;1.05;;;;;;;;;;5002024;28;20048;-64
2022/05/20 13:53:26;;;;;;;2.08;1.30;;;;;;;;;;4989037;28;20029;-65
2022/05/20 13:55:51;;;;;;;1.52;1.15;;;;;;;;;;4989232;28;20025;-64
2022/05/20 13:58:17;;;;;;;3.42;1.23;;;;;;;;;;4988592;28;20400;-64
2022/05/20 14:00:44;;;;;;;2.17;1.10;;;;;;;;;;5003872;28;20463;-64
2022/05/20 14:03:31;;;;;;;3.10;1.27;;;;;;;;;;4988466;28;20478;-64
2022/05/20 14:06:06;;;;;;;3.80;1.38;;;;;;;;;;4988810;28;20376;-64
2022/05/20 14:08:37;;;;;;;1.38;1.02;;;;;;;;;;5005427;28;20077;-64
2022/05/20 14:11:04;;;;;;;3.72;1.13;;;;;;;;;;5010613;28;20105;-64
2022/05/20 14:13:38;;;;;;;2.40;1.20;;;;;;;;;;5029349;28;20337;-64
2022/05/20 14:16:14;;;;;;;2.90;1.17;;;;;;;;;;5010163;28;20057;-63
2022/05/20 14:18:43;;;;;;;1.83;0.93;;;;;;;;;;5028531;28;20431;-64
2022/05/20 14:21:15;;;;;;;2.15;1.40;;;;;;;;;;5028217;28;20343;-65
2022/05/20 14:23:46;;;;;;;2.40;1.15;;;;;;;;;;5011554;28;20499;-63
2022/05/20 14:26:19;;;;;;;2.95;1.33;;;;;;;;;;5028450;28;20450;-64
2022/05/20 14:28:53;;;;;;;1.55;1.10;;;;;;;;;;5027981;28;20382;-66
2022/05/20 14:31:37;;;;;;;3.55;1.63;;;;;;;;;;5028130;28;20419;-64
2022/05/20 14:34:31;;;;;;;3.22;1.42;;;;;;;;;;5028490;28;20419;-64
2022/05/20 14:37:00;;;;;;;1.35;1.15;;;;;;;;;;5010289;28;20382;-64
2022/05/20 14:39:27;;;;;;;2.38;1.50;;;;;;;;;;5012965;28;20370;-64
2022/05/20 14:42:09;;;;;;;2.20;1.27;;;;;;;;;;5031946;28;20428;-64
2022/05/20 14:44:34;;;;;;;3.05;1.23;;;;;;;;;;5032565;28;20438;-64
2022/05/20 14:47:15;;;;;;;2.88;1.30;;;;;;;;;;5032120;28;20042;-64
2022/05/20 14:49:46;;;;;;;2.25;1.05;;;;;;;;;;5014332;28;20450;-64
2022/05/20 14:52:23;;;;;;;2.33;1.23;;;;;;;;;;5031920;28;20331;-64
2022/05/20 14:54:48;;;;;;;2.17;1.27;;;;;;;;;;5031228;28;20336;-64
2022/05/20 14:57:42;;;;;;;2.53;0.95;;;;;;;;;;5032201;28;20448;-65
2022/05/20 15:00:17;;;;;;;3.85;1.30;;;;;;;;;;5029113;28;20117;-64
2022/05/20 15:02:43;;;;;;;2.67;1.55;;;;;;;;;;5031306;28;20103;-64
2022/05/20 15:05:09;;;;;;;3.83;1.10;;;;;;;;;;5031513;28;20443;-67
2022/05/20 15:07:38;;;;;;;1.90;1.10;;;;;;;;;;5030447;28;20086;-64
2022/05/20 15:10:15;;;;;;;1.80;1.13;;;;;;;;;;5031416;28;20136;-64
2022/05/20 15:12:40;;;;;;;2.58;1.17;;;;;;;;;;5030977;28;20415;-64
2022/05/20 15:15:06;;;;;;;1.80;1.33;;;;;;;;;;5031410;28;20429;-64
2022/05/20 15:17:31;;;;;;;3.35;1.38;;;;;;;;;;5031377;28;20439;-64
2022/05/20 15:19:57;;;;;;;1.83;1.15;;;;;;;;;;5030970;28;20350;-64
2022/05/20 15:22:22;;;;;;;2.72;1.27;;;;;;;;;;5033130;28;20423;-65
2022/05/20 15:24:48;;;;;;;1.92;1.02;;;;;;;;;;5031434;28;20326;-63
2022/05/20 15:27:20;;;;;;;2.42;1.42;;;;;;;;;;5013051;28;20568;-65
2022/05/20 15:29:46;;;;;;;2.47;1.73;;;;;;;;;;5012799;28;20062;-64
2022/05/20 15:34:55;;;;;;;3.53;1.50;;;;;;;;;;5031543;28;20478;-63
2022/05/20 15:37:30;;;;;;;1.33;1.02;;;;;;;;;;5031800;28;20411;-63
2022/05/20 15:39:59;;;;;;;2.83;1.50;;;;;;;;;;5030396;28;20392;-64
2022/05/20 15:42:27;;;;;;;1.00;0.90;;;;;;;;;;5031102;28;20506;-64
2022/05/20 15:44:53;;;;;;;2.35;1.00;;;;;;;;;;5030744;28;20449;-64
2022/05/20 15:47:19;;;;;;;2.35;1.35;;;;;;;;;;5030919;28;20403;-64